Terminal Aerodrome Forecast
Issued by NWS

Home | Current Version | Previous Version | Text Only | Print | Product List | Glossary On
Versions: 1 2 3 4 5 6 7 8 9 10 11 12 13
000
FTUS42 TJSJ 241700
TAFKPK
TAF
TKPK 241735Z 2418/2518 07015G24KT P6SM VCSH SCT022
      TEMPO 2418/2422 5SM SHRA BKN018
     FM250000 08015KT P6SM VCSH FEW018=

USA.gov is the U.S. government's official web portal to all federal, state and local government web resources and services.